sensor_id;sensor_type;location;lat;lon;timestamp;P1;durP1;ratioP1;P2;durP2;ratioP2
11447;SDS011;43755;49.736;8.734;2024-03-07T00:01:38;45.28;;;32.35;;
11447;SDS011;43755;49.736;8.734;2024-03-07T00:03:39;43.13;;;32.20;;
11447;SDS011;43755;49.736;8.734;2024-03-07T00:05:41;44.42;;;33.03;;
11447;SDS011;43755;49.736;8.734;2024-03-07T00:07:42;46.85;;;33.33;;
11447;SDS011;43755;49.736;8.734;2024-03-07T00:09:44;47.05;;;33.17;;
11447;SDS011;43755;49.736;8.734;2024-03-07T00:11:46;43.78;;;31.40;;
11447;SDS011;43755;49.736;8.734;2024-03-07T00:13:47;46.28;;;32.90;;
11447;SDS011;43755;49.736;8.734;2024-03-07T00:15:49;46.30;;;34.10;;
11447;SDS011;43755;49.736;8.734;2024-03-07T00:17:52;44.22;;;32.70;;
11447;SDS011;43755;49.736;8.734;2024-03-07T00:19:53;42.08;;;31.83;;
11447;SDS011;43755;49.736;8.734;2024-03-07T00:21:54;47.00;;;32.80;;
11447;SDS011;43755;49.736;8.734;2024-03-07T00:23:56;43.70;;;32.58;;
11447;SDS011;43755;49.736;8.734;2024-03-07T00:25:57;48.63;;;33.67;;
11447;SDS011;43755;49.736;8.734;2024-03-07T00:27:59;47.95;;;33.97;;
11447;SDS011;43755;49.736;8.734;2024-03-07T00:30:03;46.13;;;33.58;;
11447;SDS011;43755;49.736;8.734;2024-03-07T00:32:05;49.15;;;33.08;;
11447;SDS011;43755;49.736;8.734;2024-03-07T00:34:08;48.75;;;35.28;;
11447;SDS011;43755;49.736;8.734;2024-03-07T00:36:10;46.17;;;32.97;;
11447;SDS011;43755;49.736;8.734;2024-03-07T00:38:12;47.35;;;33.63;;
11447;SDS011;43755;49.736;8.734;2024-03-07T00:40:13;46.92;;;34.60;;
11447;SDS011;43755;49.736;8.734;2024-03-07T00:42:15;47.88;;;34.00;;
11447;SDS011;43755;49.736;8.734;2024-03-07T00:44:17;48.47;;;34.20;;
11447;SDS011;43755;49.736;8.734;2024-03-07T00:46:18;46.83;;;33.72;;
11447;SDS011;43755;49.736;8.734;2024-03-07T00:48:19;44.93;;;32.67;;
11447;SDS011;43755;49.736;8.734;2024-03-07T00:50:21;47.15;;;35.05;;
11447;SDS011;43755;49.736;8.734;2024-03-07T00:52:23;46.20;;;34.58;;
11447;SDS011;43755;49.736;8.734;2024-03-07T00:54:25;47.30;;;34.50;;
11447;SDS011;43755;49.736;8.734;2024-03-07T00:56:25;50.10;;;35.03;;
11447;SDS011;43755;49.736;8.734;2024-03-07T00:58:28;44.40;;;33.55;;
11447;SDS011;43755;49.736;8.734;2024-03-07T01:00:31;45.17;;;34.05;;
11447;SDS011;43755;49.736;8.734;2024-03-07T01:02:32;45.83;;;33.42;;
11447;SDS011;43755;49.736;8.734;2024-03-07T01:04:34;49.20;;;34.53;;
11447;SDS011;43755;49.736;8.734;2024-03-07T01:06:37;43.70;;;33.13;;
11447;SDS011;43755;49.736;8.734;2024-03-07T01:08:39;49.53;;;34.50;;
11447;SDS011;43755;49.736;8.734;2024-03-07T01:10:40;46.58;;;33.72;;
11447;SDS011;43755;49.736;8.734;2024-03-07T01:12:42;49.67;;;34.83;;
11447;SDS011;43755;49.736;8.734;2024-03-07T01:14:44;53.30;;;34.45;;
11447;SDS011;43755;49.736;8.734;2024-03-07T01:16:46;46.13;;;33.20;;
11447;SDS011;43755;49.736;8.734;2024-03-07T01:18:47;46.03;;;33.20;;
11447;SDS011;43755;49.736;8.734;2024-03-07T01:20:49;45.67;;;32.97;;
11447;SDS011;43755;49.736;8.734;2024-03-07T01:22:51;48.25;;;33.28;;
11447;SDS011;43755;49.736;8.734;2024-03-07T01:24:53;45.53;;;33.47;;
11447;SDS011;43755;49.736;8.734;2024-03-07T01:26:54;52.20;;;36.38;;
11447;SDS011;43755;49.736;8.734;2024-03-07T01:28:56;52.38;;;34.55;;
11447;SDS011;43755;49.736;8.734;2024-03-07T01:30:58;50.53;;;33.50;;
11447;SDS011;43755;49.736;8.734;2024-03-07T01:32:58;50.63;;;34.40;;
11447;SDS011;43755;49.736;8.734;2024-03-07T01:35:00;46.17;;;34.20;;
11447;SDS011;43755;49.736;8.734;2024-03-07T01:37:01;49.90;;;34.10;;
11447;SDS011;43755;49.736;8.734;2024-03-07T01:39:04;52.45;;;37.42;;
11447;SDS011;43755;49.736;8.734;2024-03-07T01:41:05;52.10;;;35.78;;
11447;SDS011;43755;49.736;8.734;2024-03-07T01:43:06;48.05;;;34.47;;
11447;SDS011;43755;49.736;8.734;2024-03-07T01:45:08;51.42;;;35.05;;
11447;SDS011;43755;49.736;8.734;2024-03-07T01:47:10;52.97;;;34.45;;
11447;SDS011;43755;49.736;8.734;2024-03-07T01:49:12;49.05;;;34.83;;
11447;SDS011;43755;49.736;8.734;2024-03-07T01:51:13;52.50;;;36.25;;
11447;SDS011;43755;49.736;8.734;2024-03-07T01:53:15;51.92;;;35.08;;
11447;SDS011;43755;49.736;8.734;2024-03-07T01:55:19;50.25;;;35.67;;
11447;SDS011;43755;49.736;8.734;2024-03-07T01:57:20;53.42;;;35.90;;
11447;SDS011;43755;49.736;8.734;2024-03-07T01:59:22;49.55;;;34.75;;
11447;SDS011;43755;49.736;8.734;2024-03-07T02:01:26;46.13;;;32.90;;
11447;SDS011;43755;49.736;8.734;2024-03-07T02:03:28;51.00;;;35.42;;
11447;SDS011;43755;49.736;8.734;2024-03-07T02:05:29;46.40;;;33.77;;
11447;SDS011;43755;49.736;8.734;2024-03-07T02:07:31;49.50;;;33.53;;
11447;SDS011;43755;49.736;8.734;2024-03-07T02:09:33;48.22;;;33.53;;
11447;SDS011;43755;49.736;8.734;2024-03-07T02:11:37;46.35;;;32.90;;
11447;SDS011;43755;49.736;8.734;2024-03-07T02:13:38;49.17;;;33.17;;
11447;SDS011;43755;49.736;8.734;2024-03-07T02:15:40;50.50;;;34.33;;
11447;SDS011;43755;49.736;8.734;2024-03-07T02:17:42;50.17;;;33.60;;
11447;SDS011;43755;49.736;8.734;2024-03-07T02:19:44;48.92;;;34.50;;
11447;SDS011;43755;49.736;8.734;2024-03-07T02:21:48;47.47;;;32.80;;
11447;SDS011;43755;49.736;8.734;2024-03-07T02:23:49;47.22;;;33.40;;
11447;SDS011;43755;49.736;8.734;2024-03-07T02:25:51;48.53;;;33.03;;
11447;SDS011;43755;49.736;8.734;2024-03-07T02:27:52;47.95;;;33.08;;
11447;SDS011;43755;49.736;8.734;2024-03-07T02:29:54;49.35;;;34.67;;
11447;SDS011;43755;49.736;8.734;2024-03-07T02:31:55;52.03;;;35.25;;
11447;SDS011;43755;49.736;8.734;2024-03-07T02:33:55;49.90;;;33.93;;
11447;SDS011;43755;49.736;8.734;2024-03-07T02:35:57;50.60;;;33.42;;
11447;SDS011;43755;49.736;8.734;2024-03-07T02:37:59;47.70;;;33.70;;
11447;SDS011;43755;49.736;8.734;2024-03-07T02:40:00;55.72;;;36.08;;
11447;SDS011;43755;49.736;8.734;2024-03-07T02:42:01;47.88;;;34.85;;
11447;SDS011;43755;49.736;8.734;2024-03-07T02:44:03;51.75;;;34.25;;
11447;SDS011;43755;49.736;8.734;2024-03-07T02:46:05;52.25;;;35.38;;
11447;SDS011;43755;49.736;8.734;2024-03-07T02:48:06;47.00;;;32.22;;
11447;SDS011;43755;49.736;8.734;2024-03-07T02:50:09;48.17;;;33.50;;
11447;SDS011;43755;49.736;8.734;2024-03-07T02:52:11;49.55;;;33.85;;
11447;SDS011;43755;49.736;8.734;2024-03-07T02:54:13;49.95;;;34.50;;
11447;SDS011;43755;49.736;8.734;2024-03-07T02:56:15;49.03;;;32.85;;
11447;SDS011;43755;49.736;8.734;2024-03-07T02:58:16;49.28;;;33.50;;
11447;SDS011;43755;49.736;8.734;2024-03-07T03:00:18;51.00;;;33.40;;
11447;SDS011;43755;49.736;8.734;2024-03-07T03:02:26;47.40;;;31.75;;
11447;SDS011;43755;49.736;8.734;2024-03-07T03:04:27;43.63;;;31.40;;
11447;SDS011;43755;49.736;8.734;2024-03-07T03:06:29;44.97;;;31.23;;
11447;SDS011;43755;49.736;8.734;2024-03-07T03:08:31;46.35;;;31.83;;
11447;SDS011;43755;49.736;8.734;2024-03-07T03:10:36;45.45;;;31.17;;
11447;SDS011;43755;49.736;8.734;2024-03-07T03:12:37;43.45;;;30.45;;
11447;SDS011;43755;49.736;8.734;2024-03-07T03:14:37;44.63;;;30.07;;
11447;SDS011;43755;49.736;8.734;2024-03-07T03:16:40;44.92;;;30.20;;
11447;SDS011;43755;49.736;8.734;2024-03-07T03:18:42;46.88;;;30.05;;
11447;SDS011;43755;49.736;8.734;2024-03-07T03:20:43;42.35;;;29.80;;
11447;SDS011;43755;49.736;8.734;2024-03-07T03:22:48;42.42;;;29.90;;
11447;SDS011;43755;49.736;8.734;2024-03-07T03:24:50;41.65;;;29.55;;
11447;SDS011;43755;49.736;8.734;2024-03-07T03:26:56;38.33;;;28.52;;
11447;SDS011;43755;49.736;8.734;2024-03-07T03:28:58;41.63;;;28.70;;
11447;SDS011;43755;49.736;8.734;2024-03-07T03:30:59;38.50;;;26.77;;
11447;SDS011;43755;49.736;8.734;2024-03-07T03:33:01;41.70;;;28.27;;
11447;SDS011;43755;49.736;8.734;2024-03-07T03:35:01;41.37;;;28.10;;
11447;SDS011;43755;49.736;8.734;2024-03-07T03:37:03;40.28;;;27.23;;
11447;SDS011;43755;49.736;8.734;2024-03-07T03:39:04;37.83;;;26.63;;
11447;SDS011;43755;49.736;8.734;2024-03-07T03:41:07;38.85;;;26.90;;
11447;SDS011;43755;49.736;8.734;2024-03-07T03:43:09;34.45;;;26.10;;
11447;SDS011;43755;49.736;8.734;2024-03-07T03:45:11;36.97;;;26.05;;
11447;SDS011;43755;49.736;8.734;2024-03-07T03:47:14;37.03;;;25.23;;
11447;SDS011;43755;49.736;8.734;2024-03-07T03:49:16;39.03;;;27.15;;
11447;SDS011;43755;49.736;8.734;2024-03-07T03:51:16;37.97;;;27.00;;
11447;SDS011;43755;49.736;8.734;2024-03-07T03:53:17;41.55;;;26.70;;
11447;SDS011;43755;49.736;8.734;2024-03-07T03:55:19;38.55;;;27.15;;
11447;SDS011;43755;49.736;8.734;2024-03-07T03:57:20;37.53;;;27.25;;
11447;SDS011;43755;49.736;8.734;2024-03-07T03:59:22;35.70;;;25.03;;
11447;SDS011;43755;49.736;8.734;2024-03-07T04:01:23;36.92;;;25.08;;
11447;SDS011;43755;49.736;8.734;2024-03-07T04:03:25;37.35;;;25.73;;
11447;SDS011;43755;49.736;8.734;2024-03-07T04:05:26;35.70;;;25.13;;
11447;SDS011;43755;49.736;8.734;2024-03-07T04:07:28;35.88;;;26.02;;
11447;SDS011;43755;49.736;8.734;2024-03-07T04:09:28;34.20;;;25.20;;
11447;SDS011;43755;49.736;8.734;2024-03-07T04:11:29;34.92;;;24.45;;
11447;SDS011;43755;49.736;8.734;2024-03-07T04:13:31;37.42;;;25.73;;
11447;SDS011;43755;49.736;8.734;2024-03-07T04:15:35;34.85;;;25.75;;
11447;SDS011;43755;49.736;8.734;2024-03-07T04:17:37;35.08;;;25.10;;
11447;SDS011;43755;49.736;8.734;2024-03-07T04:19:39;35.75;;;25.02;;
11447;SDS011;43755;49.736;8.734;2024-03-07T04:21:40;37.72;;;26.92;;
11447;SDS011;43755;49.736;8.734;2024-03-07T04:23:41;39.85;;;27.95;;
11447;SDS011;43755;49.736;8.734;2024-03-07T04:25:45;38.25;;;27.35;;
11447;SDS011;43755;49.736;8.734;2024-03-07T04:27:47;39.03;;;26.60;;
11447;SDS011;43755;49.736;8.734;2024-03-07T04:29:49;40.25;;;25.85;;
11447;SDS011;43755;49.736;8.734;2024-03-07T04:31:52;38.25;;;26.85;;
11447;SDS011;43755;49.736;8.734;2024-03-07T04:33:54;40.20;;;27.33;;
11447;SDS011;43755;49.736;8.734;2024-03-07T04:35:55;38.92;;;27.25;;
11447;SDS011;43755;49.736;8.734;2024-03-07T04:37:57;35.90;;;26.45;;
11447;SDS011;43755;49.736;8.734;2024-03-07T04:39:58;38.50;;;25.90;;
11447;SDS011;43755;49.736;8.734;2024-03-07T04:41:59;39.17;;;27.17;;
11447;SDS011;43755;49.736;8.734;2024-03-07T04:44:01;39.10;;;27.60;;
11447;SDS011;43755;49.736;8.734;2024-03-07T04:46:02;40.72;;;27.17;;
11447;SDS011;43755;49.736;8.734;2024-03-07T04:48:08;36.58;;;26.27;;
11447;SDS011;43755;49.736;8.734;2024-03-07T04:50:09;37.95;;;26.80;;
11447;SDS011;43755;49.736;8.734;2024-03-07T04:52:11;39.30;;;27.25;;
11447;SDS011;43755;49.736;8.734;2024-03-07T04:54:12;38.23;;;27.33;;
11447;SDS011;43755;49.736;8.734;2024-03-07T04:56:13;40.60;;;27.48;;
11447;SDS011;43755;49.736;8.734;2024-03-07T04:58:14;38.53;;;28.03;;
11447;SDS011;43755;49.736;8.734;2024-03-07T05:00:16;42.60;;;29.85;;
11447;SDS011;43755;49.736;8.734;2024-03-07T05:02:19;41.03;;;29.60;;
11447;SDS011;43755;49.736;8.734;2024-03-07T05:04:21;45.88;;;28.98;;
11447;SDS011;43755;49.736;8.734;2024-03-07T05:06:25;41.45;;;28.25;;
11447;SDS011;43755;49.736;8.734;2024-03-07T05:08:26;41.40;;;27.90;;
11447;SDS011;43755;49.736;8.734;2024-03-07T05:10:27;46.30;;;28.77;;
11447;SDS011;43755;49.736;8.734;2024-03-07T05:12:29;41.75;;;28.50;;
11447;SDS011;43755;49.736;8.734;2024-03-07T05:14:31;38.75;;;27.75;;
11447;SDS011;43755;49.736;8.734;2024-03-07T05:16:32;37.10;;;26.67;;
11447;SDS011;43755;49.736;8.734;2024-03-07T05:18:33;39.25;;;27.00;;
11447;SDS011;43755;49.736;8.734;2024-03-07T05:20:36;39.97;;;27.13;;
11447;SDS011;43755;49.736;8.734;2024-03-07T05:22:38;38.53;;;26.27;;
11447;SDS011;43755;49.736;8.734;2024-03-07T05:24:40;41.78;;;26.45;;
11447;SDS011;43755;49.736;8.734;2024-03-07T05:26:42;37.50;;;25.70;;
11447;SDS011;43755;49.736;8.734;2024-03-07T05:28:45;40.60;;;26.65;;
11447;SDS011;43755;49.736;8.734;2024-03-07T05:30:46;38.30;;;26.33;;
11447;SDS011;43755;49.736;8.734;2024-03-07T05:32:49;38.35;;;27.05;;
11447;SDS011;43755;49.736;8.734;2024-03-07T05:34:50;37.65;;;27.25;;
11447;SDS011;43755;49.736;8.734;2024-03-07T05:36:54;35.80;;;25.63;;
11447;SDS011;43755;49.736;8.734;2024-03-07T05:38:56;37.13;;;24.90;;
11447;SDS011;43755;49.736;8.734;2024-03-07T05:40:56;35.87;;;24.03;;
11447;SDS011;43755;49.736;8.734;2024-03-07T05:42:58;39.72;;;25.25;;
11447;SDS011;43755;49.736;8.734;2024-03-07T05:44:59;34.95;;;24.05;;
11447;SDS011;43755;49.736;8.734;2024-03-07T05:47:01;46.58;;;25.27;;
11447;SDS011;43755;49.736;8.734;2024-03-07T05:49:01;39.63;;;24.47;;
11447;SDS011;43755;49.736;8.734;2024-03-07T05:51:04;34.95;;;24.83;;
11447;SDS011;43755;49.736;8.734;2024-03-07T05:53:06;35.40;;;24.30;;
11447;SDS011;43755;49.736;8.734;2024-03-07T05:55:08;38.08;;;24.20;;
11447;SDS011;43755;49.736;8.734;2024-03-07T05:57:11;35.15;;;23.95;;
11447;SDS011;43755;49.736;8.734;2024-03-07T05:59:11;36.70;;;25.43;;
11447;SDS011;43755;49.736;8.734;2024-03-07T06:01:13;38.20;;;26.10;;
11447;SDS011;43755;49.736;8.734;2024-03-07T06:03:14;36.42;;;25.38;;
11447;SDS011;43755;49.736;8.734;2024-03-07T06:05:17;39.38;;;25.77;;
11447;SDS011;43755;49.736;8.734;2024-03-07T06:07:19;36.05;;;24.70;;
11447;SDS011;43755;49.736;8.734;2024-03-07T06:09:22;37.22;;;25.63;;
11447;SDS011;43755;49.736;8.734;2024-03-07T06:11:24;42.72;;;25.83;;
11447;SDS011;43755;49.736;8.734;2024-03-07T06:13:25;38.05;;;25.20;;
11447;SDS011;43755;49.736;8.734;2024-03-07T06:15:27;42.05;;;25.60;;
11447;SDS011;43755;49.736;8.734;2024-03-07T06:17:28;38.20;;;24.90;;
11447;SDS011;43755;49.736;8.734;2024-03-07T06:19:30;37.97;;;26.58;;
11447;SDS011;43755;49.736;8.734;2024-03-07T06:21:31;39.17;;;25.42;;
11447;SDS011;43755;49.736;8.734;2024-03-07T06:23:31;41.47;;;25.53;;
11447;SDS011;43755;49.736;8.734;2024-03-07T06:25:34;42.17;;;27.17;;
11447;SDS011;43755;49.736;8.734;2024-03-07T06:27:36;42.75;;;26.50;;
11447;SDS011;43755;49.736;8.734;2024-03-07T06:29:47;41.17;;;27.00;;
11447;SDS011;43755;49.736;8.734;2024-03-07T06:31:50;50.85;;;28.65;;
11447;SDS011;43755;49.736;8.734;2024-03-07T06:33:53;110.03;;;33.83;;
11447;SDS011;43755;49.736;8.734;2024-03-07T06:35:55;62.45;;;33.80;;
11447;SDS011;43755;49.736;8.734;2024-03-07T06:37:56;55.65;;;31.35;;
11447;SDS011;43755;49.736;8.734;2024-03-07T06:39:57;55.20;;;33.53;;
11447;SDS011;43755;49.736;8.734;2024-03-07T06:41:59;60.65;;;34.15;;
11447;SDS011;43755;49.736;8.734;2024-03-07T06:44:01;57.10;;;33.85;;
11447;SDS011;43755;49.736;8.734;2024-03-07T06:46:03;55.30;;;33.20;;
11447;SDS011;43755;49.736;8.734;2024-03-07T06:48:05;59.72;;;33.72;;
11447;SDS011;43755;49.736;8.734;2024-03-07T06:50:08;57.58;;;35.28;;
11447;SDS011;43755;49.736;8.734;2024-03-07T06:52:14;53.10;;;33.63;;
11447;SDS011;43755;49.736;8.734;2024-03-07T06:54:15;51.65;;;33.30;;
11447;SDS011;43755;49.736;8.734;2024-03-07T06:56:17;53.97;;;32.95;;
11447;SDS011;43755;49.736;8.734;2024-03-07T06:58:19;55.60;;;32.93;;
11447;SDS011;43755;49.736;8.734;2024-03-07T07:00:20;47.22;;;32.22;;
11447;SDS011;43755;49.736;8.734;2024-03-07T07:02:21;52.13;;;34.80;;
11447;SDS011;43755;49.736;8.734;2024-03-07T07:04:22;47.08;;;32.45;;
11447;SDS011;43755;49.736;8.734;2024-03-07T07:06:25;47.72;;;32.72;;
11447;SDS011;43755;49.736;8.734;2024-03-07T07:08:28;58.13;;;35.53;;
11447;SDS011;43755;49.736;8.734;2024-03-07T07:10:29;49.40;;;33.10;;
11447;SDS011;43755;49.736;8.734;2024-03-07T07:12:31;53.08;;;34.17;;
11447;SDS011;43755;49.736;8.734;2024-03-07T07:14:33;52.15;;;34.30;;
11447;SDS011;43755;49.736;8.734;2024-03-07T07:16:36;53.65;;;34.55;;
11447;SDS011;43755;49.736;8.734;2024-03-07T07:18:41;56.03;;;35.88;;
11447;SDS011;43755;49.736;8.734;2024-03-07T07:20:43;51.42;;;34.72;;
11447;SDS011;43755;49.736;8.734;2024-03-07T07:22:44;51.58;;;34.65;;
11447;SDS011;43755;49.736;8.734;2024-03-07T07:24:46;52.30;;;33.75;;
11447;SDS011;43755;49.736;8.734;2024-03-07T07:26:48;53.70;;;35.13;;
11447;SDS011;43755;49.736;8.734;2024-03-07T07:28:50;48.65;;;34.55;;
11447;SDS011;43755;49.736;8.734;2024-03-07T07:30:55;51.50;;;34.15;;
11447;SDS011;43755;49.736;8.734;2024-03-07T07:32:56;49.25;;;34.17;;
11447;SDS011;43755;49.736;8.734;2024-03-07T07:34:57;45.77;;;32.10;;
11447;SDS011;43755;49.736;8.734;2024-03-07T07:36:58;49.88;;;32.97;;
11447;SDS011;43755;49.736;8.734;2024-03-07T07:39:00;51.92;;;34.33;;
11447;SDS011;43755;49.736;8.734;2024-03-07T07:41:02;52.80;;;34.42;;
11447;SDS011;43755;49.736;8.734;2024-03-07T07:43:04;50.88;;;34.67;;
11447;SDS011;43755;49.736;8.734;2024-03-07T07:45:06;46.22;;;32.72;;
11447;SDS011;43755;49.736;8.734;2024-03-07T07:47:12;47.97;;;32.80;;
11447;SDS011;43755;49.736;8.734;2024-03-07T07:49:13;44.33;;;32.78;;
11447;SDS011;43755;49.736;8.734;2024-03-07T07:51:16;49.20;;;33.72;;
11447;SDS011;43755;49.736;8.734;2024-03-07T07:53:17;47.50;;;33.58;;
11447;SDS011;43755;49.736;8.734;2024-03-07T07:55:19;47.22;;;33.22;;
11447;SDS011;43755;49.736;8.734;2024-03-07T07:57:21;43.47;;;32.72;;
11447;SDS011;43755;49.736;8.734;2024-03-07T07:59:22;46.55;;;32.97;;
11447;SDS011;43755;49.736;8.734;2024-03-07T08:01:24;45.67;;;32.50;;
11447;SDS011;43755;49.736;8.734;2024-03-07T08:03:27;45.50;;;32.25;;
11447;SDS011;43755;49.736;8.734;2024-03-07T08:05:28;46.75;;;32.75;;
11447;SDS011;43755;49.736;8.734;2024-03-07T08:07:30;47.60;;;32.55;;
11447;SDS011;43755;49.736;8.734;2024-03-07T08:09:31;45.40;;;32.88;;
11447;SDS011;43755;49.736;8.734;2024-03-07T08:11:33;45.55;;;32.78;;
11447;SDS011;43755;49.736;8.734;2024-03-07T08:13:34;40.85;;;31.00;;
11447;SDS011;43755;49.736;8.734;2024-03-07T08:15:36;42.42;;;31.77;;
11447;SDS011;43755;49.736;8.734;2024-03-07T08:17:37;37.90;;;27.80;;
11447;SDS011;43755;49.736;8.734;2024-03-07T08:19:39;38.33;;;27.73;;
11447;SDS011;43755;49.736;8.734;2024-03-07T08:21:40;36.75;;;28.13;;
11447;SDS011;43755;49.736;8.734;2024-03-07T08:23:42;36.13;;;26.27;;
11447;SDS011;43755;49.736;8.734;2024-03-07T08:25:43;35.13;;;26.45;;
11447;SDS011;43755;49.736;8.734;2024-03-07T08:27:46;31.33;;;23.58;;
11447;SDS011;43755;49.736;8.734;2024-03-07T08:29:49;32.33;;;24.33;;
11447;SDS011;43755;49.736;8.734;2024-03-07T08:31:49;28.83;;;23.57;;
11447;SDS011;43755;49.736;8.734;2024-03-07T08:33:51;29.40;;;24.15;;
11447;SDS011;43755;49.736;8.734;2024-03-07T08:35:55;28.63;;;21.95;;
11447;SDS011;43755;49.736;8.734;2024-03-07T08:37:56;28.35;;;22.27;;
11447;SDS011;43755;49.736;8.734;2024-03-07T08:39:58;26.38;;;21.25;;
11447;SDS011;43755;49.736;8.734;2024-03-07T08:41:59;26.63;;;20.15;;
11447;SDS011;43755;49.736;8.734;2024-03-07T08:44:01;23.20;;;20.13;;
11447;SDS011;43755;49.736;8.734;2024-03-07T08:46:03;23.95;;;18.65;;
11447;SDS011;43755;49.736;8.734;2024-03-07T08:48:04;25.05;;;19.15;;
11447;SDS011;43755;49.736;8.734;2024-03-07T08:50:07;23.95;;;19.35;;
11447;SDS011;43755;49.736;8.734;2024-03-07T08:52:09;22.10;;;17.88;;
11447;SDS011;43755;49.736;8.734;2024-03-07T08:54:11;19.65;;;17.23;;
11447;SDS011;43755;49.736;8.734;2024-03-07T08:56:12;21.23;;;18.08;;
11447;SDS011;43755;49.736;8.734;2024-03-07T08:58:13;20.58;;;17.25;;
11447;SDS011;43755;49.736;8.734;2024-03-07T09:00:15;19.52;;;16.85;;
11447;SDS011;43755;49.736;8.734;2024-03-07T09:02:23;24.17;;;17.27;;
11447;SDS011;43755;49.736;8.734;2024-03-07T09:04:25;20.95;;;17.48;;
11447;SDS011;43755;49.736;8.734;2024-03-07T09:06:26;18.33;;;15.57;;
11447;SDS011;43755;49.736;8.734;2024-03-07T09:08:29;19.23;;;15.23;;
11447;SDS011;43755;49.736;8.734;2024-03-07T09:10:31;17.50;;;14.73;;
11447;SDS011;43755;49.736;8.734;2024-03-07T09:12:31;18.20;;;15.17;;
11447;SDS011;43755;49.736;8.734;2024-03-07T09:14:33;17.55;;;15.38;;
11447;SDS011;43755;49.736;8.734;2024-03-07T09:16:35;20.27;;;15.85;;
11447;SDS011;43755;49.736;8.734;2024-03-07T09:18:37;18.95;;;15.65;;
11447;SDS011;43755;49.736;8.734;2024-03-07T09:20:39;19.42;;;15.85;;
11447;SDS011;43755;49.736;8.734;2024-03-07T09:22:40;17.80;;;14.95;;
11447;SDS011;43755;49.736;8.734;2024-03-07T09:24:42;20.57;;;14.60;;
11447;SDS011;43755;49.736;8.734;2024-03-07T09:26:44;18.42;;;15.15;;
11447;SDS011;43755;49.736;8.734;2024-03-07T09:28:45;17.55;;;15.10;;
11447;SDS011;43755;49.736;8.734;2024-03-07T09:30:47;17.10;;;14.15;;
11447;SDS011;43755;49.736;8.734;2024-03-07T09:32:49;17.83;;;14.82;;
11447;SDS011;43755;49.736;8.734;2024-03-07T09:34:49;17.97;;;14.43;;
11447;SDS011;43755;49.736;8.734;2024-03-07T09:36:50;16.58;;;14.48;;
11447;SDS011;43755;49.736;8.734;2024-03-07T09:38:52;17.92;;;15.20;;
11447;SDS011;43755;49.736;8.734;2024-03-07T09:40:54;15.63;;;13.63;;
11447;SDS011;43755;49.736;8.734;2024-03-07T09:42:56;16.60;;;14.90;;
11447;SDS011;43755;49.736;8.734;2024-03-07T09:45:00;21.60;;;15.70;;
11447;SDS011;43755;49.736;8.734;2024-03-07T09:47:04;17.90;;;15.77;;
11447;SDS011;43755;49.736;8.734;2024-03-07T09:49:06;18.65;;;15.32;;
11447;SDS011;43755;49.736;8.734;2024-03-07T09:51:10;17.92;;;15.23;;
11447;SDS011;43755;49.736;8.734;2024-03-07T09:53:17;19.08;;;14.95;;
11447;SDS011;43755;49.736;8.734;2024-03-07T09:55:20;16.25;;;14.27;;
11447;SDS011;43755;49.736;8.734;2024-03-07T09:57:25;18.15;;;14.48;;
11447;SDS011;43755;49.736;8.734;2024-03-07T09:59:27;16.35;;;14.05;;
11447;SDS011;43755;49.736;8.734;2024-03-07T10:01:33;19.17;;;15.25;;
11447;SDS011;43755;49.736;8.734;2024-03-07T10:03:35;17.15;;;14.00;;
11447;SDS011;43755;49.736;8.734;2024-03-07T10:05:39;17.83;;;14.18;;
11447;SDS011;43755;49.736;8.734;2024-03-07T10:07:40;15.80;;;14.10;;
11447;SDS011;43755;49.736;8.734;2024-03-07T10:09:42;17.05;;;14.35;;
11447;SDS011;43755;49.736;8.734;2024-03-07T10:11:44;18.17;;;14.63;;
11447;SDS011;43755;49.736;8.734;2024-03-07T10:13:47;17.05;;;15.23;;
11447;SDS011;43755;49.736;8.734;2024-03-07T10:15:49;17.13;;;14.90;;
11447;SDS011;43755;49.736;8.734;2024-03-07T10:17:52;17.92;;;15.05;;
11447;SDS011;43755;49.736;8.734;2024-03-07T10:19:53;17.77;;;14.67;;
11447;SDS011;43755;49.736;8.734;2024-03-07T10:21:56;18.67;;;14.95;;
11447;SDS011;43755;49.736;8.734;2024-03-07T10:24:04;18.17;;;15.02;;
11447;SDS011;43755;49.736;8.734;2024-03-07T10:26:07;24.33;;;15.50;;
11447;SDS011;43755;49.736;8.734;2024-03-07T10:28:10;16.88;;;15.05;;
11447;SDS011;43755;49.736;8.734;2024-03-07T10:30:13;18.38;;;14.77;;
11447;SDS011;43755;49.736;8.734;2024-03-07T10:32:21;19.50;;;15.65;;
11447;SDS011;43755;49.736;8.734;2024-03-07T10:34:23;20.90;;;15.85;;
11447;SDS011;43755;49.736;8.734;2024-03-07T10:36:25;17.38;;;15.27;;
11447;SDS011;43755;49.736;8.734;2024-03-07T10:38:26;20.23;;;14.30;;
11447;SDS011;43755;49.736;8.734;2024-03-07T10:40:28;21.95;;;14.65;;
11447;SDS011;43755;49.736;8.734;2024-03-07T10:42:30;23.55;;;14.63;;
11447;SDS011;43755;49.736;8.734;2024-03-07T10:44:36;19.40;;;14.73;;
11447;SDS011;43755;49.736;8.734;2024-03-07T10:46:43;19.73;;;14.55;;
11447;SDS011;43755;49.736;8.734;2024-03-07T10:48:47;17.25;;;14.63;;
11447;SDS011;43755;49.736;8.734;2024-03-07T10:50:59;16.20;;;14.40;;
11447;SDS011;43755;49.736;8.734;2024-03-07T10:53:15;19.33;;;13.77;;
11447;SDS011;43755;49.736;8.734;2024-03-07T10:55:24;15.70;;;13.55;;
11447;SDS011;43755;49.736;8.734;2024-03-07T10:57:39;16.40;;;14.18;;
11447;SDS011;43755;49.736;8.734;2024-03-07T10:59:49;15.07;;;13.50;;
11447;SDS011;43755;49.736;8.734;2024-03-07T11:01:59;13.77;;;12.38;;
11447;SDS011;43755;49.736;8.734;2024-03-07T11:04:16;13.93;;;12.02;;
11447;SDS011;43755;49.736;8.734;2024-03-07T11:06:19;15.35;;;12.73;;
11447;SDS011;43755;49.736;8.734;2024-03-07T11:08:21;16.08;;;12.55;;
11447;SDS011;43755;49.736;8.734;2024-03-07T11:10:23;13.60;;;12.30;;
11447;SDS011;43755;49.736;8.734;2024-03-07T11:12:24;14.27;;;12.77;;
11447;SDS011;43755;49.736;8.734;2024-03-07T11:14:28;14.68;;;13.15;;
11447;SDS011;43755;49.736;8.734;2024-03-07T11:16:30;14.70;;;12.43;;
11447;SDS011;43755;49.736;8.734;2024-03-07T11:18:34;16.42;;;13.80;;
11447;SDS011;43755;49.736;8.734;2024-03-07T11:20:36;14.73;;;12.65;;
11447;SDS011;43755;49.736;8.734;2024-03-07T11:22:38;15.43;;;13.15;;
11447;SDS011;43755;49.736;8.734;2024-03-07T11:24:39;14.77;;;12.77;;
11447;SDS011;43755;49.736;8.734;2024-03-07T11:26:42;14.98;;;13.32;;
11447;SDS011;43755;49.736;8.734;2024-03-07T11:28:43;15.53;;;13.90;;
11447;SDS011;43755;49.736;8.734;2024-03-07T11:30:47;15.07;;;13.48;;
11447;SDS011;43755;49.736;8.734;2024-03-07T11:32:49;14.70;;;12.95;;
11447;SDS011;43755;49.736;8.734;2024-03-07T11:34:54;15.23;;;13.63;;
11447;SDS011;43755;49.736;8.734;2024-03-07T11:36:56;15.07;;;13.20;;
11447;SDS011;43755;49.736;8.734;2024-03-07T11:39:00;14.98;;;12.70;;
11447;SDS011;43755;49.736;8.734;2024-03-07T11:41:01;14.57;;;12.35;;
11447;SDS011;43755;49.736;8.734;2024-03-07T11:43:04;16.15;;;12.90;;
11447;SDS011;43755;49.736;8.734;2024-03-07T11:45:06;13.20;;;11.80;;
11447;SDS011;43755;49.736;8.734;2024-03-07T11:47:08;14.00;;;12.20;;
11447;SDS011;43755;49.736;8.734;2024-03-07T11:49:08;12.87;;;11.53;;
11447;SDS011;43755;49.736;8.734;2024-03-07T11:51:17;15.63;;;12.70;;
11447;SDS011;43755;49.736;8.734;2024-03-07T11:53:25;13.32;;;11.65;;
11447;SDS011;43755;49.736;8.734;2024-03-07T11:55:27;12.30;;;11.07;;